Bookmark and Share
Track history (hours):
 

RoSS Sea

More information available from US FCC via Universal Licensing System and Coast Guard Vessel Documentation Center.

Last reported at 2014-Mar-09 23:32 UTC. Time now 2014-Apr-20 19:07 UTC.
Position N 26°33' W 079°54'.
Warning: this ship's position is 41 days out of date.

Length 30 m; draft 5 m.

Type: Tow > 200 m length. MMSI: 367334360.

NotesDate/timePositionNaut miles runAvg speedWind from/ knotsBaromVisibWave heightAir tempDewpointWater temp
2014-Mar-09 23:32N 26°33' W 079°54'8 8.2
2014-Mar-09 22:33N 26°25' W 079°56'8 8.0
2014-Mar-09 21:33N 26°17' W 079°57'8 8.2
2014-Mar-09 20:33N 26°09' W 079°58'8 8.1
2014-Mar-09 19:33N 26°01' W 079°59'7 7.4
2014-Mar-09 18:33N 25°54' W 079°60'8 7.7
2014-Mar-09 17:33N 25°46' W 080°01'5 5.5
2014-Mar-09 16:33N 25°41' W 080°01'8 7.5
2014-Mar-09 15:33N 25°33' W 080°02'  
2014-Mar-04 09:30N 29°29' W 094°52'7 7.2
2014-Mar-04 08:33N 29°35' W 094°56'8 6.9
2014-Mar-04 07:27N 29°41' W 094°59'  
2014-Feb-28 22:33N 29°44' W 095°08'0 0.0
2014-Feb-28 19:30N 29°44' W 095°08'0 0.0
2014-Feb-28 18:25N 29°44' W 095°08'0 0.0
2014-Feb-28 17:33N 29°44' W 095°08'0 0.0
2014-Feb-28 16:33N 29°44' W 095°08'0 0.0
2014-Feb-28 15:33N 29°44' W 095°08'0 0.0
2014-Feb-28 14:33N 29°44' W 095°08'0 0.2
2014-Feb-28 13:28N 29°44' W 095°08'  

Dump ship's entire track history

sailing weather and tide predictions

RoSS Sea — WDE3122 — position and weather